Time;durP1;ratioP1;P1;durP2;ratioP2;P2;SDS_P1;SDS_P2;PMS_P1;PMS_P2;Temp;Humidity;BMP_temperature;BMP_pressure;BME280_temperature;BME280_humidity;BME280_pressure;Samples;Min_cycle;Max_cycle;Signal;HPM_P1;HPM_P2
2022/09/14 00:00:51;;;;;;;9.30;8.30;;;20.20;79.20;;;;;;5093765;28;20017;-15
2022/09/14 00:03:18;;;;;;;11.57;8.73;;;20.20;79.20;;;;;;5093947;28;20485;-14
2022/09/14 00:05:44;;;;;;;10.93;8.38;;;20.20;79.30;;;;;;5093714;28;20032;-15
2022/09/14 00:08:11;;;;;;;12.07;8.18;;;20.20;79.20;;;;;;5093523;28;20039;-15
2022/09/14 00:10:41;;;;;;;12.82;8.82;;;20.20;79.20;;;;;;5093777;28;20024;-14
2022/09/14 00:13:07;;;;;;;13.15;8.32;;;20.20;79.10;;;;;;5093414;28;20032;-16
2022/09/14 00:15:38;;;;;;;10.82;7.85;;;20.20;79.10;;;;;;5093789;28;20249;-15
2022/09/14 00:18:06;;;;;;;11.82;8.50;;;20.20;79.10;;;;;;5093474;28;20464;-15
2022/09/14 00:20:33;;;;;;;14.45;9.63;;;20.20;79.00;;;;;;5093191;28;20114;-15
2022/09/14 00:23:00;;;;;;;19.35;12.18;;;20.20;79.20;;;;;;5093455;28;20069;-13
2022/09/14 00:25:27;;;;;;;14.07;10.40;;;20.20;80.40;;;;;;5093360;28;20032;-15
2022/09/14 00:27:54;;;;;;;14.43;9.85;;;20.20;80.20;;;;;;5093215;28;20016;-14
2022/09/14 00:30:22;;;;;;;12.23;8.57;;;20.10;79.80;;;;;;5093906;28;20043;-14
2022/09/14 00:32:49;;;;;;;12.55;9.77;;;20.10;79.50;;;;;;5093002;28;20542;-14
2022/09/14 00:35:17;;;;;;;12.55;8.95;;;20.10;79.50;;;;;;5093275;28;20544;-15
2022/09/14 00:37:43;;;;;;;13.52;9.90;;;20.10;79.60;;;;;;5093484;28;20440;-14
2022/09/14 00:40:09;;;;;;;12.93;9.35;;;20.20;79.60;;;;;;5093196;28;20070;-16
2022/09/14 00:42:37;;;;;;;12.27;9.60;;;20.10;79.70;;;;;;5093438;28;20047;-15
2022/09/14 00:45:18;;;;;;;12.57;8.88;;;20.10;79.70;;;;;;5092911;28;20024;-14
2022/09/14 00:47:46;;;;;;;12.55;8.93;;;20.10;79.70;;;;;;5093394;28;20024;-14
2022/09/14 00:50:13;;;;;;;11.60;9.00;;;20.10;79.70;;;;;;5093040;28;20032;-15
2022/09/14 00:52:42;;;;;;;11.73;9.40;;;20.10;79.80;;;;;;5093337;28;20020;-14
2022/09/14 00:55:13;;;;;;;14.43;9.43;;;20.10;79.70;;;;;;5092869;28;20499;-14
2022/09/14 00:57:43;;;;;;;11.32;8.35;;;20.10;79.80;;;;;;5092858;28;20113;-14
2022/09/14 01:00:11;;;;;;;11.18;8.40;;;20.00;79.80;;;;;;5093115;28;20490;-14
2022/09/14 01:02:39;;;;;;;11.10;8.20;;;20.00;79.70;;;;;;5092984;28;20031;-15
2022/09/14 01:05:06;;;;;;;16.75;11.57;;;20.00;79.80;;;;;;5091511;28;20024;-14
2022/09/14 01:07:54;;;;;;;13.18;9.10;;;20.00;79.90;;;;;;5091719;28;20040;-14
2022/09/14 01:10:39;;;;;;;12.25;9.82;;;20.00;80.00;;;;;;5092830;28;20396;-15
2022/09/14 01:13:30;;;;;;;12.57;8.45;;;20.00;80.00;;;;;;5092803;28;20060;-15
2022/09/14 01:16:06;;;;;;;11.68;8.77;;;19.90;80.10;;;;;;5092921;28;20028;-15
2022/09/14 01:18:49;;;;;;;14.75;9.38;;;19.90;80.00;;;;;;5093122;28;20036;-15
2022/09/14 01:21:31;;;;;;;12.68;8.82;;;19.90;80.10;;;;;;5092907;28;20103;-15
2022/09/14 01:24:13;;;;;;;13.98;8.73;;;19.90;80.00;;;;;;5092836;28;20024;-16
2022/09/14 01:26:57;;;;;;;14.00;8.70;;;19.80;80.10;;;;;;5092898;28;20360;-15
2022/09/14 01:29:32;;;;;;;13.38;9.45;;;19.80;80.30;;;;;;5092946;28;20027;-16
2022/09/14 01:32:08;;;;;;;14.70;11.00;;;19.80;80.30;;;;;;5096149;28;20024;-15
2022/09/14 01:34:38;;;;;;;11.82;8.68;;;19.80;80.40;;;;;;5095442;28;20135;-15
2022/09/14 01:37:12;;;;;;;13.02;10.00;;;19.70;80.30;;;;;;5096609;28;20099;-15
2022/09/14 01:39:52;;;;;;;11.95;8.65;;;19.70;80.40;;;;;;5096751;28;20035;-15
2022/09/14 01:42:21;;;;;;;11.40;8.27;;;19.60;80.50;;;;;;5096994;28;20031;-14
2022/09/14 01:44:53;;;;;;;12.00;8.80;;;19.60;80.50;;;;;;5096438;28;20031;-15
2022/09/14 01:47:48;;;;;;;13.38;8.77;;;19.60;80.50;;;;;;5096591;28;20016;-14
2022/09/14 01:50:23;;;;;;;12.23;8.70;;;19.50;80.70;;;;;;5095151;28;20040;-15
2022/09/14 01:53:05;;;;;;;10.02;8.23;;;19.50;80.60;;;;;;5094622;28;20056;-15
2022/09/14 01:55:56;;;;;;;11.05;7.72;;;19.50;80.70;;;;;;5096565;28;20028;-15
2022/09/14 01:58:48;;;;;;;12.70;8.48;;;19.50;80.60;;;;;;5095767;28;20101;-15
2022/09/14 02:01:23;;;;;;;11.75;9.35;;;19.50;80.60;;;;;;5096283;28;20039;-14
2022/09/14 02:03:57;;;;;;;10.77;9.00;;;19.50;80.70;;;;;;5096309;28;20024;-15
2022/09/14 02:06:44;;;;;;;9.75;7.85;;;19.50;80.90;;;;;;5096197;28;20020;-15
2022/09/14 02:09:14;;;;;;;10.93;8.85;;;19.50;80.80;;;;;;5095800;28;20020;-16
2022/09/14 02:11:41;;;;;;;11.52;8.60;;;19.40;80.80;;;;;;5096056;28;20059;-15
2022/09/14 02:14:07;;;;;;;11.05;8.57;;;19.40;80.90;;;;;;5095536;28;20024;-15
2022/09/14 02:16:34;;;;;;;12.60;9.38;;;19.40;80.80;;;;;;5095917;28;20035;-15
2022/09/14 02:19:00;;;;;;;12.07;7.70;;;19.40;81.00;;;;;;5095408;28;20028;-14
2022/09/14 02:21:32;;;;;;;11.95;9.55;;;19.40;81.00;;;;;;5095552;28;20425;-15
2022/09/14 02:23:59;;;;;;;12.85;9.63;;;19.40;81.10;;;;;;5096302;28;20020;-15
2022/09/14 02:26:25;;;;;;;10.77;8.77;;;19.40;81.60;;;;;;5095566;28;20556;-15
2022/09/14 02:28:55;;;;;;;9.95;8.15;;;19.40;81.40;;;;;;5095131;28;20020;-13
2022/09/14 02:31:53;;;;;;;10.73;9.10;;;19.40;81.30;;;;;;5095404;28;20063;-15
2022/09/14 02:34:39;;;;;;;12.43;8.63;;;19.30;81.40;;;;;;5095200;28;20028;-15
2022/09/14 02:37:30;;;;;;;11.88;9.00;;;19.30;81.30;;;;;;5094671;28;20032;-13
2022/09/14 02:40:31;;;;;;;12.48;10.00;;;19.30;81.40;;;;;;5095578;28;20101;-14
2022/09/14 02:43:23;;;;;;;11.20;9.05;;;19.30;81.30;;;;;;5094214;28;20028;-17
2022/09/14 02:46:19;;;;;;;11.57;9.07;;;19.30;81.30;;;;;;5094120;28;20024;-15
2022/09/14 02:49:00;;;;;;;9.50;8.43;;;19.30;81.40;;;;;;5095361;28;20028;-16
2022/09/14 02:51:32;;;;;;;10.63;8.77;;;19.30;81.30;;;;;;5094982;28;20361;-15
2022/09/14 02:54:05;;;;;;;12.48;9.63;;;19.30;81.40;;;;;;5094928;28;20036;-16
2022/09/14 02:56:33;;;;;;;11.80;9.40;;;19.30;81.40;;;;;;5095406;28;20032;-15
2022/09/14 02:58:59;;;;;;;11.45;8.32;;;19.30;81.40;;;;;;5094326;28;20065;-14
2022/09/14 03:01:26;;;;;;;14.27;11.60;;;19.30;81.30;;;;;;5093524;28;20054;-15
2022/09/14 03:03:52;;;;;;;15.93;11.70;;;19.20;81.70;;;;;;5095327;28;20027;-15
2022/09/14 03:06:19;;;;;;;12.15;10.15;;;19.20;82.00;;;;;;5094613;28;20425;-14
2022/09/14 03:08:46;;;;;;;12.23;9.60;;;19.20;82.00;;;;;;5094909;28;20012;-16
2022/09/14 03:11:12;;;;;;;12.75;8.98;;;19.10;81.90;;;;;;5094474;28;20027;-15
2022/09/14 03:13:38;;;;;;;11.48;9.57;;;19.10;82.00;;;;;;5094973;28;20020;-16
2022/09/14 03:16:13;;;;;;;12.35;9.20;;;19.10;81.90;;;;;;5094516;28;20039;-15
2022/09/14 03:18:39;;;;;;;10.75;8.13;;;19.10;82.00;;;;;;5094862;28;20028;-15
2022/09/14 03:21:11;;;;;;;12.35;9.85;;;19.10;81.90;;;;;;5094321;28;20028;-15
2022/09/14 03:23:42;;;;;;;11.30;9.20;;;19.10;82.00;;;;;;5095317;28;20024;-15
2022/09/14 03:26:15;;;;;;;16.33;12.48;;;19.10;82.10;;;;;;5094800;28;20103;-16
2022/09/14 03:28:41;;;;;;;11.38;9.50;;;19.10;82.10;;;;;;5094470;28;20016;-14
2022/09/14 03:31:10;;;;;;;12.18;9.70;;;19.00;82.10;;;;;;5092924;28;20055;-14
2022/09/14 03:33:36;;;;;;;12.70;9.48;;;19.00;82.10;;;;;;5094119;28;20106;-14
2022/09/14 03:36:11;;;;;;;14.50;10.43;;;19.00;82.10;;;;;;5094339;28;20032;-16
2022/09/14 03:38:37;;;;;;;10.70;8.98;;;19.00;82.10;;;;;;5094068;28;20379;-15
2022/09/14 03:41:10;;;;;;;14.98;10.45;;;19.00;82.10;;;;;;5093803;28;20031;-15
2022/09/14 03:43:36;;;;;;;12.57;9.77;;;18.90;82.10;;;;;;5094289;28;20116;-17
2022/09/14 03:46:14;;;;;;;12.50;9.45;;;19.00;82.20;;;;;;5093949;28;20426;-15
2022/09/14 03:48:41;;;;;;;11.18;8.55;;;19.00;82.10;;;;;;5094266;28;20023;-15
2022/09/14 03:51:09;;;;;;;11.10;8.55;;;19.00;82.10;;;;;;5093954;28;20112;-15
2022/09/14 03:53:36;;;;;;;13.13;9.95;;;19.00;82.10;;;;;;5093662;28;20107;-15
2022/09/14 03:56:09;;;;;;;11.32;9.40;;;19.00;82.20;;;;;;5093860;28;20032;-15
2022/09/14 03:58:37;;;;;;;10.80;8.13;;;19.00;82.00;;;;;;5093634;28;20060;-15
2022/09/14 04:01:08;;;;;;;11.90;9.75;;;19.00;82.10;;;;;;5093588;28;20432;-15
2022/09/14 04:03:35;;;;;;;12.23;9.38;;;19.00;82.10;;;;;;5094093;28;20552;-15
2022/09/14 04:06:04;;;;;;;11.23;9.90;;;18.90;82.10;;;;;;5093965;28;20020;-13
2022/09/14 04:08:35;;;;;;;11.57;9.85;;;18.90;82.30;;;;;;5093576;28;20032;-15
2022/09/14 04:11:09;;;;;;;10.85;7.65;;;18.90;82.20;;;;;;5092150;28;20020;-15
2022/09/14 04:13:36;;;;;;;17.17;13.02;;;18.90;82.20;;;;;;5093374;28;20032;-17
2022/09/14 04:16:03;;;;;;;11.90;9.80;;;18.90;82.50;;;;;;5093851;28;20028;-16
2022/09/14 04:18:30;;;;;;;11.60;9.75;;;18.90;82.50;;;;;;5092208;28;20032;-14
2022/09/14 04:21:02;;;;;;;11.57;9.02;;;18.90;82.50;;;;;;5091944;28;20031;-15
2022/09/14 04:23:28;;;;;;;12.23;10.30;;;18.80;82.40;;;;;;5093681;28;20023;-13
2022/09/14 04:25:54;;;;;;;15.30;12.18;;;18.80;82.50;;;;;;5092096;28;20024;-16
2022/09/14 04:28:21;;;;;;;11.32;9.35;;;18.80;82.80;;;;;;5093531;28;20088;-15
2022/09/14 04:31:01;;;;;;;11.60;9.23;;;18.80;82.70;;;;;;5093587;28;20028;-15
2022/09/14 04:33:33;;;;;;;12.07;9.35;;;18.80;82.70;;;;;;5093483;28;20032;-14
2022/09/14 04:36:01;;;;;;;14.27;11.82;;;18.80;82.70;;;;;;5093218;28;20035;-15
2022/09/14 04:38:29;;;;;;;15.68;12.15;;;18.80;82.70;;;;;;5093068;28;20028;-16
2022/09/14 04:40:56;;;;;;;13.00;10.30;;;18.70;82.70;;;;;;5093099;28;20024;-14
2022/09/14 04:43:23;;;;;;;14.40;10.80;;;18.70;82.80;;;;;;5093380;28;20070;-14
2022/09/14 04:45:50;;;;;;;15.57;13.15;;;18.70;82.80;;;;;;5093337;28;20368;-15
2022/09/14 04:48:16;;;;;;;10.07;8.88;;;18.70;83.00;;;;;;5093141;28;20495;-14
2022/09/14 04:50:42;;;;;;;10.75;8.85;;;18.60;82.90;;;;;;5093501;28;20109;-15
2022/09/14 04:53:09;;;;;;;17.40;11.88;;;18.70;83.00;;;;;;5092633;28;20157;-16
2022/09/14 04:55:36;;;;;;;10.40;8.23;;;18.60;83.10;;;;;;5093103;28;20467;-14
2022/09/14 04:58:02;;;;;;;12.35;9.18;;;18.60;83.30;;;;;;5093298;28;20044;-16
2022/09/14 05:00:28;;;;;;;13.43;11.82;;;18.60;83.10;;;;;;5092955;28;20534;-14
2022/09/14 05:02:54;;;;;;;11.45;9.85;;;18.60;83.50;;;;;;5091575;28;20383;-17
2022/09/14 05:05:20;;;;;;;11.65;9.90;;;18.60;83.70;;;;;;5093585;28;20475;-16
2022/09/14 05:07:46;;;;;;;13.70;11.82;;;18.60;83.30;;;;;;5097399;28;20082;-15
2022/09/14 05:10:13;;;;;;;12.20;9.27;;;18.60;83.40;;;;;;5097238;28;20026;-15
2022/09/14 05:12:39;;;;;;;10.32;8.43;;;18.70;83.30;;;;;;5096812;28;20535;-15
2022/09/14 05:15:06;;;;;;;11.68;10.10;;;18.70;83.30;;;;;;5096792;28;20036;-14
2022/09/14 05:17:35;;;;;;;11.77;9.32;;;18.80;83.20;;;;;;5096821;28;20024;-15
2022/09/14 05:20:02;;;;;;;13.00;9.80;;;18.80;83.10;;;;;;5097102;28;20020;-14
2022/09/14 05:22:28;;;;;;;10.40;8.85;;;18.90;83.10;;;;;;5096688;28;20047;-14
2022/09/14 05:24:54;;;;;;;13.32;9.63;;;18.90;83.00;;;;;;5096459;28;20024;-15
2022/09/14 05:27:19;;;;;;;20.70;12.50;;;18.90;82.90;;;;;;5096596;28;20027;-14
2022/09/14 05:29:45;;;;;;;13.27;10.35;;;18.90;83.00;;;;;;5097071;28;20020;-16
2022/09/14 05:32:11;;;;;;;13.13;10.00;;;19.00;82.90;;;;;;5096841;28;20074;-14
2022/09/14 05:34:37;;;;;;;17.60;15.00;;;19.10;82.90;;;;;;5096698;28;20506;-16
2022/09/14 05:37:03;;;;;;;12.10;10.07;;;19.10;82.90;;;;;;5096233;28;20391;-15
2022/09/14 05:39:29;;;;;;;11.43;9.13;;;19.10;83.00;;;;;;5096645;28;20060;-15
2022/09/14 05:41:55;;;;;;;14.20;9.60;;;19.20;82.80;;;;;;5096640;28;20047;-15
2022/09/14 05:44:21;;;;;;;11.73;10.00;;;19.30;82.70;;;;;;5096294;28;20539;-15
2022/09/14 05:46:47;;;;;;;12.05;9.50;;;19.30;82.60;;;;;;5096260;28;20028;-16
2022/09/14 05:49:13;;;;;;;19.70;15.25;;;19.40;82.70;;;;;;5094933;28;20082;-16
2022/09/14 05:51:39;;;;;;;19.65;15.23;;;19.40;82.50;;;;;;5096551;28;20099;-14
2022/09/14 05:54:10;;;;;;;13.88;10.02;;;19.40;82.70;;;;;;5096330;28;20117;-14
2022/09/14 05:56:37;;;;;;;13.05;9.85;;;19.50;82.60;;;;;;5096444;28;20467;-14
2022/09/14 05:59:03;;;;;;;13.15;10.13;;;19.50;82.50;;;;;;5095633;28;20047;-15
2022/09/14 06:01:31;;;;;;;14.77;10.45;;;19.60;82.50;;;;;;5096309;28;20062;-15
2022/09/14 06:04:01;;;;;;;18.25;11.73;;;19.70;82.40;;;;;;5096265;28;20107;-15
2022/09/14 06:06:28;;;;;;;32.25;26.10;;;19.90;82.30;;;;;;5094635;28;20027;-16
2022/09/14 06:08:56;;;;;;;25.02;19.58;;;19.90;82.20;;;;;;5095622;28;20107;-15
2022/09/14 06:11:39;;;;;;;17.45;13.32;;;20.00;82.10;;;;;;5096137;28;20502;-15
2022/09/14 06:14:06;;;;;;;18.98;12.75;;;20.10;82.20;;;;;;5095951;28;20106;-16
2022/09/14 06:16:32;;;;;;;11.65;9.93;;;20.30;82.60;;;;;;5094963;28;20442;-15
2022/09/14 06:18:59;;;;;;;17.77;11.32;;;20.40;82.00;;;;;;5094727;28;20069;-15
2022/09/14 06:21:33;;;;;;;21.25;16.75;;;20.50;81.70;;;;;;5096346;28;20032;-14
2022/09/14 06:24:00;;;;;;;17.17;12.25;;;20.60;81.80;;;;;;5095829;28;20109;-15
2022/09/14 06:26:26;;;;;;;26.25;14.07;;;20.70;81.70;;;;;;5095823;28;20032;-15
2022/09/14 06:28:52;;;;;;;21.98;16.00;;;20.90;81.60;;;;;;5095168;28;20035;-15
2022/09/14 06:31:21;;;;;;;15.93;11.45;;;21.00;82.20;;;;;;5095907;28;20020;-14
2022/09/14 06:33:49;;;;;;;23.48;16.98;;;21.10;81.30;;;;;;5095586;28;20035;-16
2022/09/14 06:36:21;;;;;;;18.02;13.65;;;21.30;81.80;;;;;;5095261;28;20060;-15
2022/09/14 06:38:48;;;;;;;21.05;16.50;;;21.40;81.40;;;;;;5095679;28;20021;-16
2022/09/14 06:41:18;;;;;;;19.40;14.68;;;21.40;81.30;;;;;;5095331;28;20020;-14
2022/09/14 06:43:45;;;;;;;22.55;16.48;;;21.60;81.40;;;;;;5095183;28;20032;-15
2022/09/14 06:46:13;;;;;;;16.83;13.13;;;21.80;81.40;;;;;;5095482;28;20036;-15
2022/09/14 06:48:45;;;;;;;24.20;16.35;;;21.90;81.00;;;;;;5095069;28;20112;-14
2022/09/14 06:51:15;;;;;;;17.20;12.95;;;22.10;80.30;;;;;;5094821;28;20039;-14
2022/09/14 06:53:42;;;;;;;20.95;15.27;;;22.20;80.10;;;;;;5094422;28;20360;-16
2022/09/14 06:56:08;;;;;;;17.58;14.00;;;22.40;80.00;;;;;;5095185;28;20024;-15
2022/09/14 06:58:35;;;;;;;21.10;15.85;;;22.50;79.90;;;;;;5094800;28;20388;-15
2022/09/14 07:01:03;;;;;;;19.35;14.43;;;22.60;79.20;;;;;;5094945;28;20028;-14
2022/09/14 07:03:30;;;;;;;18.33;15.27;;;22.80;79.00;;;;;;5095114;28;20020;-16
2022/09/14 07:06:09;;;;;;;20.63;13.52;;;22.90;78.80;;;;;;5095022;28;20511;-15
2022/09/14 07:08:37;;;;;;;17.08;13.55;;;23.10;78.30;;;;;;5094709;28;20024;-15
2022/09/14 07:11:04;;;;;;;14.07;11.70;;;23.20;78.00;;;;;;5094776;28;20077;-14
2022/09/14 07:13:31;;;;;;;16.80;12.07;;;23.30;77.70;;;;;;5094451;28;20052;-15
2022/09/14 07:15:57;;;;;;;14.30;11.13;;;23.40;77.30;;;;;;5094651;28;20457;-13
2022/09/14 07:18:31;;;;;;;13.27;10.98;;;23.50;77.20;;;;;;5094673;28;20133;-14
2022/09/14 07:21:04;;;;;;;17.33;13.20;;;23.70;76.80;;;;;;5094452;28;20034;-14
2022/09/14 07:23:30;;;;;;;12.75;10.57;;;23.90;76.60;;;;;;5094480;28;20471;-14
2022/09/14 07:26:06;;;;;;;15.98;11.85;;;24.00;76.20;;;;;;5094347;28;20027;-14
2022/09/14 07:28:34;;;;;;;17.42;12.38;;;24.30;75.70;;;;;;5093833;28;20024;-14
2022/09/14 07:31:01;;;;;;;14.68;10.93;;;24.60;74.60;;;;;;5094085;28;20020;-14
2022/09/14 07:33:28;;;;;;;14.02;8.60;;;24.90;73.00;;;;;;5094132;28;20425;-14
2022/09/14 07:35:54;;;;;;;15.57;11.38;;;25.10;73.00;;;;;;5094445;28;20032;-15
2022/09/14 07:38:20;;;;;;;14.52;10.90;;;25.20;72.40;;;;;;5092915;28;20498;-14
2022/09/14 07:40:46;;;;;;;11.35;8.35;;;25.30;72.10;;;;;;5094408;28;20043;-14
2022/09/14 07:43:12;;;;;;;12.35;9.95;;;25.30;71.90;;;;;;5092648;28;20035;-14
2022/09/14 07:45:39;;;;;;;10.85;7.72;;;25.40;71.80;;;;;;5163311;22;20052;-18
2022/09/14 07:48:05;;;;;;;9.88;7.07;;;25.60;71.70;;;;;;5094140;28;20024;-17
2022/09/14 07:50:31;;;;;;;8.93;6.43;;;25.90;71.70;;;;;;5093911;28;20025;-18
2022/09/14 07:52:57;;;;;;;11.25;8.55;;;26.10;71.20;;;;;;5093614;28;20028;-18
2022/09/14 07:55:22;;;;;;;10.65;8.45;;;26.40;70.70;;;;;;5093788;28;20031;-17
2022/09/14 07:57:48;;;;;;;9.95;7.35;;;26.50;69.60;;;;;;5094081;28;20028;-17
2022/09/14 08:00:15;;;;;;;9.98;6.93;;;26.60;69.30;;;;;;5093953;28;20054;-17
2022/09/14 08:02:41;;;;;;;7.20;5.30;;;26.70;68.70;;;;;;5094052;28;20024;-17
2022/09/14 08:05:08;;;;;;;12.15;8.30;;;26.70;68.60;;;;;;5093559;28;20028;-15
2022/09/14 08:07:33;;;;;;;9.55;7.85;;;26.80;68.30;;;;;;5093774;28;20020;-17
2022/09/14 08:10:00;;;;;;;7.95;4.65;;;26.60;68.10;;;;;;5093865;28;20020;-17
2022/09/14 08:12:26;;;;;;;6.85;5.00;;;26.40;68.80;;;;;;5093799;28;20022;-19
2022/09/14 08:14:53;;;;;;;14.02;7.85;;;26.50;69.10;;;;;;5093298;28;20119;-18
2022/09/14 08:17:21;;;;;;;10.00;7.63;;;26.70;68.80;;;;;;5093410;28;20028;-17
2022/09/14 08:19:51;;;;;;;11.55;7.55;;;26.80;68.10;;;;;;5093737;28;20112;-16
2022/09/14 08:22:17;;;;;;;8.57;6.45;;;26.80;67.60;;;;;;5093426;28;20504;-18
2022/09/14 08:24:43;;;;;;;7.70;4.68;;;26.90;67.40;;;;;;5093460;28;20099;-18
2022/09/14 08:27:10;;;;;;;10.45;6.93;;;27.00;67.30;;;;;;5093362;28;20114;-18
2022/09/14 08:29:37;;;;;;;11.13;8.00;;;27.20;67.00;;;;;;5093233;28;20028;-18
2022/09/14 08:32:03;;;;;;;8.73;5.82;;;27.30;66.30;;;;;;5093534;28;20379;-19
2022/09/14 08:34:29;;;;;;;7.82;6.50;;;27.40;66.00;;;;;;5093419;28;20021;-17
2022/09/14 08:36:55;;;;;;;10.13;6.88;;;27.40;65.60;;;;;;5093016;28;20028;-17
2022/09/14 08:39:21;;;;;;;10.63;8.68;;;27.50;65.20;;;;;;5093623;28;20028;-17
2022/09/14 08:41:54;;;;;;;8.43;6.07;;;27.60;64.90;;;;;;5092829;28;20031;-18
2022/09/14 08:44:30;;;;;;;9.00;6.20;;;27.70;64.50;;;;;;5092891;28;20514;-17
2022/09/14 08:47:04;;;;;;;7.30;5.40;;;28.00;64.70;;;;;;5093225;28;20103;-18
2022/09/14 08:49:47;;;;;;;10.50;8.02;;;28.50;63.70;;;;;;5093457;28;20103;-17
2022/09/14 08:52:28;;;;;;;;;;;28.90;61.70;;;;;;5093591;28;20028;-18
2022/09/14 08:54:57;;;;;;;7.00;4.43;;;29.20;61.10;;;;;;5093145;28;19912;-18
2022/09/14 08:57:27;;;;;;;9.73;5.20;;;29.60;60.00;;;;;;5093304;28;20125;-18
2022/09/14 08:59:59;;;;;;;8.65;3.80;;;29.90;58.80;;;;;;5093324;28;20032;-17
2022/09/14 09:02:46;;;;;;;9.23;2.90;;;30.10;58.40;;;;;;5093153;28;20024;-16
2022/09/14 09:05:30;;;;;;;5.35;4.22;;;30.10;57.70;;;;;;5092718;28;20063;-19
2022/09/14 09:08:07;;;;;;;5.03;3.22;;;30.10;58.30;;;;;;5092896;28;20032;-17
2022/09/14 09:10:37;;;;;;;5.65;3.05;;;30.10;58.80;;;;;;5093263;28;20107;-16
2022/09/14 09:13:06;;;;;;;4.25;3.10;;;30.20;58.60;;;;;;5092833;28;20020;-17
2022/09/14 09:15:48;;;;;;;6.05;3.55;;;30.30;58.10;;;;;;5093050;28;20105;-17
2022/09/14 09:18:27;;;;;;;5.05;3.88;;;30.20;58.40;;;;;;5074921;28;20047;-19
2022/09/14 09:21:07;;;;;;;7.90;5.32;;;30.20;58.20;;;;;;5093045;28;20032;-18
2022/09/14 09:23:34;;;;;;;6.18;4.35;;;30.10;57.60;;;;;;5074801;28;20059;-17
2022/09/14 09:26:10;;;;;;;7.20;4.10;;;29.90;58.00;;;;;;5092774;28;20417;-18
2022/09/14 09:28:49;;;;;;;6.50;4.25;;;29.70;58.60;;;;;;5092986;28;20020;-18
2022/09/14 09:31:16;;;;;;;6.45;4.07;;;29.70;58.60;;;;;;5093067;28;20065;-16
2022/09/14 09:33:47;;;;;;;5.45;4.25;;;29.50;58.90;;;;;;5144148;22;20044;-14
2022/09/14 09:36:14;;;;;;;6.28;4.55;;;29.60;59.20;;;;;;5072529;28;20056;-14
2022/09/14 09:38:41;;;;;;;7.22;5.53;;;29.70;58.90;;;;;;5072481;28;20090;-15
2022/09/14 09:41:24;;;;;;;7.88;3.85;;;29.80;58.30;;;;;;5072624;28;20021;-14
2022/09/14 09:44:08;;;;;;;9.18;5.38;;;29.80;58.00;;;;;;5072730;28;20032;-15
2022/09/14 09:46:53;;;;;;;6.18;3.53;;;29.70;58.00;;;;;;5072457;28;20025;-14
2022/09/14 09:49:37;;;;;;;6.20;4.07;;;29.40;58.70;;;;;;5072631;28;20032;-14
2022/09/14 09:52:12;;;;;;;6.47;4.13;;;29.40;58.90;;;;;;5073904;28;20499;-14
2022/09/14 09:54:41;;;;;;;8.70;4.38;;;29.40;58.50;;;;;;5076212;28;20055;-14
2022/09/14 09:57:26;;;;;;;9.07;4.93;;;29.20;57.60;;;;;;5075597;28;20673;-14
2022/09/14 10:00:17;;;;;;;9.52;4.40;;;28.90;58.10;;;;;;5076242;28;20024;-14
2022/09/14 10:02:43;;;;;;;6.85;4.65;;;28.80;57.90;;;;;;5076011;28;20033;-14
2022/09/14 10:05:09;;;;;;;8.23;4.85;;;28.60;58.60;;;;;;5075720;28;20135;-14
2022/09/14 10:07:51;;;;;;;6.63;4.05;;;28.50;58.50;;;;;;5075637;28;20032;-14
2022/09/14 10:10:20;;;;;;;6.53;4.45;;;28.40;58.80;;;;;;5075908;28;20024;-15
2022/09/14 10:12:49;;;;;;;9.98;4.90;;;28.50;59.20;;;;;;5075448;28;20078;-14
2022/09/14 10:15:27;;;;;;;9.93;5.80;;;28.60;59.00;;;;;;5075750;28;20032;-14
2022/09/14 10:18:13;;;;;;;10.52;4.32;;;28.80;58.60;;;;;;5075944;28;20039;-14
2022/09/14 10:20:44;;;;;;;8.90;5.22;;;28.90;58.60;;;;;;5075413;28;20024;-14
2022/09/14 10:23:24;;;;;;;7.05;4.00;;;29.20;57.70;;;;;;5075207;28;20103;-13
2022/09/14 10:26:12;;;;;;;11.43;4.60;;;29.30;57.20;;;;;;5075335;28;20450;-14
2022/09/14 10:28:41;;;;;;;8.65;5.10;;;29.60;55.30;;;;;;5075357;28;20029;-14
2022/09/14 10:31:10;;;;;;;6.97;4.45;;;29.70;55.10;;;;;;5074906;28;20017;-14
2022/09/14 10:33:37;;;;;;;10.05;5.90;;;29.70;55.20;;;;;;5074906;28;20045;-14
2022/09/14 10:36:14;;;;;;;8.68;5.93;;;29.50;55.10;;;;;;5075172;28;20040;-14
2022/09/14 10:39:03;;;;;;;8.43;5.50;;;29.30;55.70;;;;;;5075145;28;20017;-14
2022/09/14 10:41:47;;;;;;;8.77;5.88;;;29.10;56.10;;;;;;5057173;28;20025;-14
2022/09/14 10:44:44;;;;;;;9.18;6.90;;;29.10;56.40;;;;;;5075407;28;20035;-15
2022/09/14 10:47:39;;;;;;;10.23;5.40;;;29.30;55.80;;;;;;5074695;28;20056;-14
2022/09/14 10:50:50;;;;;;;3.95;3.55;;;29.60;55.70;;;;;;5074925;28;20028;-14
2022/09/14 10:53:28;;;;;;;6.15;4.43;;;30.00;55.20;;;;;;5057356;28;20496;-14
2022/09/14 10:56:18;;;;;;;7.93;5.05;;;30.40;54.60;;;;;;5075034;28;20077;-14
2022/09/14 10:59:23;;;;;;;8.27;4.60;;;30.70;51.90;;;;;;5074990;28;20021;-14
2022/09/14 11:01:51;;;;;;;5.50;3.85;;;30.80;52.00;;;;;;5074531;28;20028;-14
2022/09/14 11:04:49;;;;;;;8.05;4.95;;;30.90;52.90;;;;;;5073683;28;20056;-14
2022/09/14 11:07:26;;;;;;;6.63;4.10;;;31.20;51.70;;;;;;5074529;28;20025;-14
2022/09/14 11:10:07;;;;;;;7.75;3.97;;;31.40;51.30;;;;;;5074727;28;20051;-14
2022/09/14 11:12:55;;;;;;;5.43;3.72;;;31.90;50.80;;;;;;5074681;28;20149;-14
2022/09/14 11:15:36;;;;;;;7.45;4.57;;;32.50;49.20;;;;;;5074408;28;20038;-14
2022/09/14 11:18:31;;;;;;;7.47;4.80;;;33.00;48.60;;;;;;5074326;28;20468;-15
2022/09/14 11:21:26;;;;;;;6.25;3.80;;;33.10;48.00;;;;;;5074019;28;20076;-14
2022/09/14 11:23:54;;;;;;;;;;;33.20;48.80;;;;;;5075023;28;20040;-14
2022/09/14 11:26:47;;;;;;;6.50;3.42;;;33.80;46.50;;;;;;5074329;28;19998;-14
2022/09/14 11:29:20;;;;;;;5.97;3.53;;;34.30;47.00;;;;;;5069984;28;20048;-14
2022/09/14 11:32:06;;;;;;;4.32;3.13;;;34.90;44.30;;;;;;5074010;28;20035;-15
2022/09/14 11:34:56;;;;;;;7.15;4.30;;;35.50;43.70;;;;;;5052647;28;20507;-15
2022/09/14 11:37:38;;;;;;;5.63;3.63;;;35.90;42.60;;;;;;5053978;28;20025;-14
2022/09/14 11:40:28;;;;;;;8.27;4.20;;;36.20;42.40;;;;;;5054140;28;20055;-14
2022/09/14 11:43:03;;;;;;;4.60;2.97;;;36.40;41.50;;;;;;5053790;28;20549;-15
2022/09/14 11:45:35;;;;;;;5.28;3.42;;;36.70;42.30;;;;;;5053863;28;20032;-14
2022/09/14 11:48:16;;;;;;;6.67;3.93;;;37.20;41.40;;;;;;5052599;28;20117;-16
2022/09/14 11:50:46;;;;;;;8.47;3.40;;;37.60;38.30;;;;;;5054025;28;20028;-14
2022/09/14 11:53:15;;;;;;;7.05;3.97;;;37.60;39.50;;;;;;5053712;28;20032;-14
2022/09/14 11:55:49;;;;;;;4.63;3.50;;;37.60;39.60;;;;;;5054081;28;20033;-15
2022/09/14 11:58:25;;;;;;;7.13;3.90;;;37.60;38.60;;;;;;5053878;28;20476;-15
2022/09/14 12:00:51;;;;;;;6.55;3.85;;;37.50;39.30;;;;;;5053703;28;20029;-14
2022/09/14 12:03:23;;;;;;;7.80;3.85;;;37.40;38.80;;;;;;5053435;28;20524;-14
2022/09/14 12:05:49;;;;;;;5.95;3.70;;;37.10;38.30;;;;;;5053703;28;20025;-14
2022/09/14 12:08:38;;;;;;;8.48;3.70;;;37.00;39.10;;;;;;5053426;28;20473;-14
2022/09/14 12:11:07;;;;;;;6.72;4.53;;;36.90;38.10;;;;;;5053186;28;20029;-14
2022/09/14 12:13:34;;;;;;;5.25;3.03;;;36.90;39.10;;;;;;5052020;28;20400;-15
2022/09/14 12:16:06;;;;;;;5.13;3.88;;;37.00;38.30;;;;;;5053470;28;20025;-14
2022/09/14 12:18:36;;;;;;;5.97;3.80;;;37.20;38.00;;;;;;5053462;28;20376;-14
2022/09/14 12:21:07;;;;;;;7.03;3.50;;;37.20;38.10;;;;;;5053047;28;20754;-14
2022/09/14 12:23:40;;;;;;;9.25;4.28;;;37.30;38.00;;;;;;5053818;28;20530;-13
2022/09/14 12:26:09;;;;;;;8.05;4.40;;;37.30;37.70;;;;;;5053175;28;20048;-14
2022/09/14 12:28:36;;;;;;;8.18;4.05;;;37.40;37.30;;;;;;5053116;28;20115;-14
2022/09/14 12:31:02;;;;;;;6.78;3.45;;;37.40;36.60;;;;;;5053164;28;20033;-14
2022/09/14 12:33:33;;;;;;;8.18;3.90;;;37.40;36.90;;;;;;5053158;28;20029;-15
2022/09/14 12:36:31;;;;;;;11.60;4.88;;;37.30;37.10;;;;;;5073521;28;20103;-13
2022/09/14 12:38:57;;;;;;;8.27;3.10;;;36.90;37.00;;;;;;5072760;28;20031;-14
2022/09/14 12:41:26;;;;;;;6.25;3.35;;;36.20;38.40;;;;;;5072966;28;20441;-14
2022/09/14 12:43:54;;;;;;;5.60;2.72;;;35.70;39.30;;;;;;5073315;28;20033;-14
2022/09/14 12:46:20;;;;;;;8.88;3.70;;;35.40;39.90;;;;;;5072993;28;20020;-14
2022/09/14 12:48:49;;;;;;;6.60;3.15;;;35.40;39.60;;;;;;5073000;28;20036;-15
2022/09/14 12:51:24;;;;;;;4.68;2.92;;;35.20;40.10;;;;;;5073203;28;20039;-14
2022/09/14 12:54:08;;;;;;;7.22;3.00;;;35.00;40.00;;;;;;5072780;28;20384;-15
2022/09/14 12:57:04;;;;;;;4.68;3.00;;;35.10;39.40;;;;;;5073152;28;20073;-15
2022/09/14 12:59:56;;;;;;;9.90;3.00;;;35.20;39.90;;;;;;5073211;28;20102;-14
2022/09/14 13:02:46;;;;;;;6.32;3.03;;;35.20;39.70;;;;;;5073222;28;20101;-14
2022/09/14 13:05:25;;;;;;;8.02;2.67;;;35.20;39.90;;;;;;5072610;28;20021;-14